createdAt,value
2022-10-07T00:00:01.044Z,3.80
2022-10-07T00:02:36.193Z,3.33
2022-10-07T00:05:09.922Z,3.25
2022-10-07T00:07:44.552Z,3.52
2022-10-07T00:10:17.919Z,3.10
2022-10-07T00:12:50.808Z,2.95
2022-10-07T00:15:24.325Z,3.95
2022-10-07T00:17:57.828Z,3.60
2022-10-07T00:20:30.715Z,3.85
2022-10-07T00:23:03.627Z,3.65
2022-10-07T00:25:39.787Z,3.40
2022-10-07T00:28:12.670Z,3.72
2022-10-07T00:30:45.839Z,3.83
2022-10-07T00:33:18.626Z,4.97
2022-10-07T00:35:51.419Z,4.67
2022-10-07T00:38:24.285Z,4.45
2022-10-07T00:40:59.495Z,4.03
2022-10-07T00:43:34.014Z,4.15
2022-10-07T00:46:32.506Z,4.60
2022-10-07T00:49:10.024Z,4.45
2022-10-07T00:51:43.979Z,10.68
2022-10-07T00:54:18.512Z,6.28
2022-10-07T00:56:51.974Z,4.58
2022-10-07T00:59:25.335Z,4.62
2022-10-07T01:01:58.433Z,4.50
2022-10-07T01:04:31.803Z,4.90
2022-10-07T01:07:05.283Z,5.05
2022-10-07T01:09:40.196Z,5.17
2022-10-07T01:12:36.312Z,4.78
2022-10-07T01:15:29.325Z,4.60
2022-10-07T01:18:18.909Z,5.62
2022-10-07T01:21:08.658Z,5.08
2022-10-07T01:24:15.454Z,5.12
2022-10-07T01:27:03.224Z,4.90
2022-10-07T01:29:43.452Z,4.35
2022-10-07T01:32:41.860Z,4.53
2022-10-07T01:35:18.926Z,5.33
2022-10-07T01:38:00.463Z,5.03
2022-10-07T01:40:48.573Z,4.40
2022-10-07T01:43:23.468Z,4.50
2022-10-07T01:45:57.253Z,4.70
2022-10-07T01:48:31.693Z,4.25
2022-10-07T01:51:04.786Z,4.62
2022-10-07T01:53:54.096Z,4.20
2022-10-07T01:56:41.202Z,4.90
2022-10-07T01:59:47.794Z,4.53
2022-10-07T02:02:43.665Z,4.65
2022-10-07T02:05:46.937Z,4.65
2022-10-07T02:08:42.687Z,4.40
2022-10-07T02:11:29.077Z,5.42
2022-10-07T02:14:28.777Z,5.25
2022-10-07T02:17:10.901Z,5.00
2022-10-07T02:19:53.687Z,4.75
2022-10-07T02:22:29.236Z,5.58
2022-10-07T02:25:02.535Z,4.15
2022-10-07T02:27:38.577Z,5.10
2022-10-07T02:30:15.413Z,4.47
2022-10-07T02:32:57.684Z,4.45
2022-10-07T02:35:50.512Z,3.98
2022-10-07T02:38:25.877Z,4.20
2022-10-07T02:41:38.075Z,4.50
2022-10-07T02:47:14.656Z,4.45
2022-10-07T02:49:53.030Z,4.22
2022-10-07T02:52:27.151Z,4.28
2022-10-07T02:55:07.173Z,4.28
2022-10-07T02:57:45.283Z,4.87
2022-10-07T03:00:20.837Z,4.15
2022-10-07T03:03:05.284Z,4.42
2022-10-07T03:05:43.305Z,4.30
2022-10-07T03:08:16.141Z,5.37
2022-10-07T03:10:50.899Z,5.05
2022-10-07T03:13:25.186Z,5.22
2022-10-07T03:15:59.795Z,5.33
2022-10-07T03:21:26.782Z,5.00
2022-10-07T03:24:01.802Z,5.70
2022-10-07T03:26:35.890Z,5.60
2022-10-07T03:29:10.618Z,5.25
2022-10-07T03:31:44.046Z,5.12
2022-10-07T03:34:17.027Z,4.40
2022-10-07T03:36:51.015Z,4.17
2022-10-07T03:39:24.841Z,4.40
2022-10-07T03:41:57.792Z,5.28
2022-10-07T03:44:30.727Z,4.95
2022-10-07T03:47:08.729Z,5.30
2022-10-07T03:49:41.852Z,5.17
2022-10-07T03:52:15.214Z,5.15
2022-10-07T03:54:48.402Z,5.25
2022-10-07T03:57:39.526Z,5.00
2022-10-07T04:00:13.923Z,5.17
2022-10-07T04:02:53.615Z,5.40
2022-10-07T04:05:26.739Z,5.45
2022-10-07T04:08:00.536Z,6.17
2022-10-07T04:10:34.898Z,6.58
2022-10-07T04:15:40.729Z,5.60
2022-10-07T04:18:14.383Z,5.40
2022-10-07T04:20:47.575Z,5.92
2022-10-07T04:23:21.497Z,5.37
2022-10-07T04:25:55.568Z,6.03
2022-10-07T04:28:28.806Z,5.55
2022-10-07T04:31:09.011Z,5.78
2022-10-07T04:33:44.586Z,5.65
2022-10-07T04:36:19.335Z,6.28
2022-10-07T04:38:56.750Z,6.58
2022-10-07T04:41:31.902Z,5.53
2022-10-07T04:44:05.086Z,6.75
2022-10-07T04:46:41.177Z,6.08
2022-10-07T04:49:15.617Z,6.47
2022-10-07T04:51:49.551Z,5.75
2022-10-07T04:54:24.513Z,5.20
2022-10-07T04:56:59.364Z,5.83
2022-10-07T04:59:36.438Z,6.25
2022-10-07T05:02:09.545Z,6.03
2022-10-07T05:04:44.587Z,6.80
2022-10-07T05:07:18.639Z,6.30
2022-10-07T05:12:25.992Z,5.60
2022-10-07T05:15:01.106Z,5.15
2022-10-07T05:17:36.654Z,5.53
2022-10-07T05:20:12.594Z,6.00
2022-10-07T05:22:47.035Z,5.55
2022-10-07T05:25:20.383Z,5.80
2022-10-07T05:27:57.760Z,5.37
2022-10-07T05:30:31.463Z,4.97
2022-10-07T05:33:04.933Z,5.33
2022-10-07T05:35:38.174Z,5.83
2022-10-07T05:38:12.321Z,6.72
2022-10-07T05:40:45.828Z,5.78
2022-10-07T05:43:20.850Z,5.53
2022-10-07T05:46:06.187Z,5.67
2022-10-07T05:48:41.158Z,5.60
2022-10-07T05:51:16.778Z,5.60
2022-10-07T05:53:50.615Z,5.80
2022-10-07T05:56:23.870Z,5.75
2022-10-07T05:59:00.506Z,6.42
2022-10-07T06:01:34.196Z,6.45
2022-10-07T06:04:09.271Z,6.03
2022-10-07T06:06:44.020Z,5.65
2022-10-07T06:09:35.605Z,6.10
2022-10-07T06:12:25.471Z,5.95
2022-10-07T06:14:59.689Z,7.75
2022-10-07T06:17:33.247Z,8.05
2022-10-07T06:20:07.924Z,7.47
2022-10-07T06:22:43.897Z,7.65
2022-10-07T06:25:17.703Z,8.40
2022-10-07T06:27:54.360Z,8.65
2022-10-07T06:30:28.174Z,7.85
2022-10-07T06:33:03.050Z,8.73
2022-10-07T06:35:36.594Z,8.50
2022-10-07T06:38:10.098Z,8.90
2022-10-07T06:40:43.538Z,8.45
2022-10-07T06:43:16.757Z,7.58
2022-10-07T06:45:51.494Z,7.80
2022-10-07T06:48:24.966Z,7.07
2022-10-07T06:51:03.504Z,6.97
2022-10-07T06:53:36.863Z,6.83
2022-10-07T06:56:11.815Z,8.10
2022-10-07T06:58:46.107Z,7.10
2022-10-07T07:01:20.875Z,5.70
2022-10-07T07:03:54.422Z,6.40
2022-10-07T07:06:27.927Z,7.15
2022-10-07T07:09:02.604Z,6.03
2022-10-07T07:11:41.018Z,5.87
2022-10-07T07:14:15.849Z,6.72
2022-10-07T07:16:50.440Z,6.55
2022-10-07T07:19:23.407Z,6.37
2022-10-07T07:21:56.802Z,6.83
2022-10-07T07:27:04.709Z,6.08
2022-10-07T07:29:37.833Z,7.40
2022-10-07T07:32:11.352Z,7.75
2022-10-07T07:34:46.116Z,6.78
2022-10-07T07:37:21.409Z,6.25
2022-10-07T07:39:55.958Z,6.75
2022-10-07T07:42:28.921Z,7.65
2022-10-07T07:45:02.577Z,10.82
2022-10-07T07:50:10.124Z,7.70
2022-10-07T07:52:43.132Z,7.15
2022-10-07T07:55:17.724Z,6.70
2022-10-07T07:57:51.453Z,7.00
2022-10-07T08:00:24.315Z,5.63
2022-10-07T08:03:03.264Z,5.95
2022-10-07T08:05:37.360Z,7.00
2022-10-07T08:08:11.939Z,6.35
2022-10-07T08:10:48.418Z,6.35
2022-10-07T08:13:20.323Z,6.65
2022-10-07T08:15:57.951Z,5.53
2022-10-07T08:18:31.008Z,6.33
2022-10-07T08:21:07.818Z,5.45
2022-10-07T08:23:42.603Z,5.60
2022-10-07T08:26:16.073Z,6.67
2022-10-07T08:28:50.030Z,5.55
2022-10-07T08:31:23.627Z,6.55
2022-10-07T08:33:59.869Z,5.85
2022-10-07T08:36:35.207Z,5.33
2022-10-07T08:39:08.489Z,6.25
2022-10-07T08:41:58.311Z,5.33
2022-10-07T08:44:36.327Z,6.10
2022-10-07T08:47:35.372Z,5.80
2022-10-07T08:50:25.545Z,5.47
2022-10-07T08:53:08.966Z,5.65
2022-10-07T08:55:55.158Z,4.80
2022-10-07T08:59:05.707Z,5.15
2022-10-07T09:02:04.123Z,4.87
2022-10-07T09:04:56.910Z,5.03
2022-10-07T09:07:47.392Z,4.83
2022-10-07T09:10:37.627Z,4.95
2022-10-07T09:13:21.250Z,5.33
2022-10-07T09:16:16.196Z,5.37
2022-10-07T09:18:56.552Z,5.17
2022-10-07T09:21:41.763Z,4.90
2022-10-07T09:24:26.695Z,4.80
2022-10-07T09:27:02.547Z,4.83
2022-10-07T09:29:36.710Z,5.22
2022-10-07T09:32:14.903Z,5.03
2022-10-07T09:34:48.095Z,4.90
2022-10-07T09:37:27.898Z,5.33
2022-10-07T09:40:24.038Z,4.90
2022-10-07T09:42:57.281Z,5.47
2022-10-07T09:45:35.290Z,6.10
2022-10-07T09:48:13.755Z,5.55
2022-10-07T09:50:48.302Z,6.10
2022-10-07T09:53:29.957Z,7.42
2022-10-07T09:56:03.013Z,5.85
2022-10-07T09:58:36.338Z,5.90
2022-10-07T10:01:12.623Z,5.42
2022-10-07T10:03:45.630Z,6.00
2022-10-07T10:06:20.551Z,6.08
2022-10-07T10:15:08.979Z,5.70
2022-10-07T10:17:42.719Z,5.95
2022-10-07T10:20:38.893Z,5.28
2022-10-07T10:23:37.296Z,5.35
2022-10-07T10:26:49.923Z,5.78
2022-10-07T10:30:06.092Z,6.00
2022-10-07T10:32:53.031Z,6.08
2022-10-07T10:35:32.662Z,6.40
2022-10-07T10:38:38.874Z,6.03
2022-10-07T10:41:20.122Z,6.50
2022-10-07T10:44:12.306Z,6.20
2022-10-07T10:47:04.847Z,6.40
2022-10-07T10:50:03.139Z,6.95
2022-10-07T10:52:45.464Z,6.53
2022-10-07T10:55:26.161Z,6.12
2022-10-07T10:58:24.297Z,5.85
2022-10-07T11:01:36.945Z,5.53
2022-10-07T11:04:22.382Z,6.08
2022-10-07T11:07:05.975Z,5.83
2022-10-07T11:09:56.876Z,5.55
2022-10-07T11:12:43.374Z,5.47
2022-10-07T11:15:38.595Z,5.90
2022-10-07T11:18:22.142Z,5.50
2022-10-07T11:20:56.849Z,6.05
2022-10-07T11:23:43.112Z,6.17
2022-10-07T11:26:24.314Z,5.72
2022-10-07T11:28:58.626Z,5.70
2022-10-07T11:31:39.983Z,6.20
2022-10-07T11:34:40.805Z,5.53
2022-10-07T11:37:31.107Z,5.92
2022-10-07T11:40:09.283Z,5.90
2022-10-07T11:42:45.620Z,4.92
2022-10-07T11:45:28.490Z,4.67
2022-10-07T11:48:07.448Z,4.72
2022-10-07T12:03:40.819Z,5.40
2022-10-07T12:06:14.325Z,5.05
2022-10-07T12:11:25.360Z,4.83
2022-10-07T12:14:01.350Z,4.90
2022-10-07T12:16:38.981Z,5.53
2022-10-07T12:19:23.034Z,4.70
2022-10-07T12:28:31.491Z,4.58
2022-10-07T12:31:22.518Z,4.80
2022-10-07T12:34:10.709Z,5.35
2022-10-07T12:36:44.444Z,4.92
2022-10-07T12:39:30.429Z,4.90
2022-10-07T12:42:05.396Z,4.85
2022-10-07T12:44:45.853Z,5.87
2022-10-07T12:47:29.913Z,5.00
2022-10-07T12:52:58.990Z,5.12
2022-10-07T12:55:45.341Z,4.45
2022-10-07T12:58:43.469Z,4.40
2022-10-07T13:01:32.890Z,4.15
2022-10-07T13:04:16.859Z,4.35
2022-10-07T13:07:46.662Z,4.47
2022-10-07T13:11:02.039Z,4.55
2022-10-07T13:13:45.704Z,4.70
2022-10-07T13:16:27.271Z,4.58
2022-10-07T13:19:29.210Z,4.70
2022-10-07T13:22:17.798Z,4.90
2022-10-07T13:24:54.402Z,5.20
2022-10-07T13:27:35.684Z,5.42
2022-10-07T13:30:11.248Z,5.50
2022-10-07T13:32:45.896Z,4.67
2022-10-07T13:38:06.450Z,4.97
2022-10-07T13:40:40.003Z,5.75
2022-10-07T13:43:15.010Z,6.10
2022-10-07T13:45:48.607Z,5.60
2022-10-07T13:48:25.232Z,6.20
2022-10-07T13:50:59.961Z,7.03
2022-10-07T13:53:36.509Z,5.92
2022-10-07T13:56:28.518Z,5.45
2022-10-07T13:59:01.722Z,5.45
2022-10-07T14:01:38.474Z,5.70
2022-10-07T14:04:28.678Z,5.37
2022-10-07T14:07:19.589Z,5.15
2022-10-07T14:10:05.078Z,5.50
2022-10-07T14:12:44.559Z,5.80
2022-10-07T14:15:27.575Z,5.30
2022-10-07T14:18:11.522Z,5.55
2022-10-07T14:20:53.190Z,5.67
2022-10-07T14:23:38.077Z,5.55
2022-10-07T14:26:14.508Z,7.12
2022-10-07T14:28:47.725Z,7.75
2022-10-07T14:31:40.130Z,7.93
2022-10-07T14:34:38.049Z,8.60
2022-10-07T14:37:15.137Z,7.90
2022-10-07T14:39:50.883Z,7.97
2022-10-07T14:42:30.499Z,7.03
2022-10-07T14:45:08.693Z,16.00
2022-10-07T14:47:45.098Z,9.15
2022-10-07T14:50:20.222Z,8.40
2022-10-07T14:52:54.037Z,7.33
2022-10-07T14:55:29.761Z,9.00
2022-10-07T14:58:02.656Z,8.43
2022-10-07T15:00:39.455Z,8.20
2022-10-07T15:03:10.176Z,7.97
2022-10-07T15:05:43.036Z,6.87
2022-10-07T15:08:16.786Z,6.67
2022-10-07T15:10:50.547Z,6.65
2022-10-07T15:13:23.571Z,6.33
2022-10-07T15:15:56.597Z,6.42
2022-10-07T15:18:29.462Z,6.62
2022-10-07T15:21:02.431Z,7.85
2022-10-07T15:23:35.597Z,7.00
2022-10-07T15:26:10.043Z,8.17
2022-10-07T15:28:42.962Z,9.15
2022-10-07T15:31:16.524Z,9.33
2022-10-07T15:33:49.889Z,8.75
2022-10-07T15:36:23.195Z,8.58
2022-10-07T15:38:56.694Z,9.25
2022-10-07T15:41:45.935Z,11.83
2022-10-07T15:44:22.435Z,11.10
2022-10-07T15:46:56.364Z,9.43
2022-10-07T15:49:30.563Z,10.00
2022-10-07T15:52:04.177Z,9.25
2022-10-07T15:54:37.748Z,8.93
2022-10-07T15:57:10.746Z,8.95
2022-10-07T15:59:45.037Z,8.85
2022-10-07T16:02:21.841Z,7.80
2022-10-07T16:04:54.540Z,8.80
2022-10-07T16:07:29.092Z,8.08
2022-10-07T16:10:01.855Z,8.78
2022-10-07T16:12:35.271Z,8.70
2022-10-07T16:15:09.626Z,9.67
2022-10-07T16:17:43.420Z,9.45
2022-10-07T16:20:18.415Z,10.85
2022-10-07T16:22:52.694Z,9.98
2022-10-07T16:25:25.630Z,9.03
2022-10-07T16:28:16.742Z,9.15
2022-10-07T16:30:51.563Z,10.43
2022-10-07T16:33:27.358Z,9.60
2022-10-07T16:36:00.213Z,10.78
2022-10-07T16:38:33.994Z,9.43
2022-10-07T16:41:07.334Z,8.83
2022-10-07T16:43:40.267Z,13.50
2022-10-07T16:46:19.645Z,8.90
2022-10-07T16:48:53.073Z,8.50
2022-10-07T16:51:31.352Z,8.05
2022-10-07T16:54:07.448Z,8.00
2022-10-07T16:56:42.105Z,7.17
2022-10-07T16:59:22.278Z,7.30
2022-10-07T17:01:57.069Z,7.28
2022-10-07T17:04:31.604Z,6.55
2022-10-07T17:07:06.075Z,6.65
2022-10-07T17:09:39.044Z,7.67
2022-10-07T17:12:12.062Z,6.00
2022-10-07T17:14:45.996Z,7.08
2022-10-07T17:17:20.419Z,6.60
2022-10-07T17:19:54.891Z,5.90
2022-10-07T17:22:28.453Z,6.75
2022-10-07T17:25:03.040Z,7.03
2022-10-07T17:27:36.016Z,7.15
2022-10-07T17:30:10.603Z,7.12
2022-10-07T17:32:43.738Z,6.42
2022-10-07T17:35:18.028Z,7.50
2022-10-07T17:37:51.256Z,7.62
2022-10-07T17:40:24.112Z,8.05
2022-10-07T17:42:57.281Z,9.28
2022-10-07T17:45:32.962Z,7.35
2022-10-07T17:48:06.789Z,7.87
2022-10-07T17:50:39.876Z,7.20
2022-10-07T17:53:13.037Z,8.33
2022-10-07T17:55:53.575Z,7.62
2022-10-07T17:58:27.005Z,7.85
2022-10-07T18:01:02.417Z,7.22
2022-10-07T18:03:37.342Z,7.20
2022-10-07T18:06:12.171Z,6.78
2022-10-07T18:08:48.401Z,6.15
2022-10-07T18:11:21.293Z,6.40
2022-10-07T18:14:11.606Z,9.68
2022-10-07T18:16:44.506Z,6.55
2022-10-07T18:19:17.204Z,7.05
2022-10-07T18:24:28.378Z,5.60
2022-10-07T18:27:02.611Z,6.28
2022-10-07T18:29:38.966Z,6.47
2022-10-07T18:32:11.942Z,6.05
2022-10-07T18:34:44.596Z,5.53
2022-10-07T18:37:17.481Z,6.05
2022-10-07T18:39:51.089Z,6.28
2022-10-07T18:42:24.144Z,6.35
2022-10-07T18:44:57.066Z,6.03
2022-10-07T18:47:29.998Z,6.72
2022-10-07T18:50:03.883Z,6.40
2022-10-07T18:52:36.886Z,6.43
2022-10-07T18:55:11.085Z,6.47
2022-10-07T18:57:44.230Z,6.30
2022-10-07T19:00:17.803Z,7.00
2022-10-07T19:02:52.169Z,7.05
2022-10-07T19:07:57.483Z,6.80
2022-10-07T19:10:30.308Z,6.53
2022-10-07T19:13:21.111Z,6.35
2022-10-07T19:15:54.978Z,5.83
2022-10-07T19:18:28.164Z,5.95
2022-10-07T19:21:02.202Z,6.17
2022-10-07T19:26:07.409Z,6.62
2022-10-07T19:28:41.712Z,6.60
2022-10-07T19:31:27.641Z,6.70
2022-10-07T19:34:10.261Z,6.80
2022-10-07T19:36:46.707Z,6.97
2022-10-07T19:39:22.327Z,7.03
2022-10-07T19:41:56.997Z,6.20
2022-10-07T19:44:30.611Z,5.95
2022-10-07T19:47:04.372Z,7.80
2022-10-07T19:52:11.197Z,7.83
2022-10-07T19:54:46.112Z,7.87
2022-10-07T19:57:19.275Z,7.60
2022-10-07T19:59:52.346Z,6.97
2022-10-07T20:02:25.253Z,7.42
2022-10-07T20:04:58.347Z,7.05
2022-10-07T20:07:31.689Z,7.47
2022-10-07T20:10:05.045Z,7.50
2022-10-07T20:12:39.573Z,8.03
2022-10-07T20:15:14.298Z,8.60
2022-10-07T20:17:49.315Z,7.75
2022-10-07T20:20:22.846Z,7.40
2022-10-07T20:22:56.422Z,7.55
2022-10-07T20:25:30.129Z,8.23
2022-10-07T20:28:03.126Z,8.18
2022-10-07T20:30:37.253Z,7.95
2022-10-07T20:33:10.390Z,7.50
2022-10-07T20:35:43.416Z,8.08
2022-10-07T20:38:16.142Z,8.78
2022-10-07T20:41:11.371Z,7.92
2022-10-07T20:43:44.181Z,8.15
2022-10-07T20:46:17.288Z,8.18
2022-10-07T20:48:52.203Z,7.83
2022-10-07T20:51:25.311Z,7.97
2022-10-07T20:53:58.224Z,7.80
2022-10-07T20:56:32.725Z,8.15
2022-10-07T20:59:06.695Z,8.40
2022-10-07T21:01:41.137Z,7.92
2022-10-07T21:04:16.681Z,7.80
2022-10-07T21:06:53.412Z,9.65
2022-10-07T21:09:28.598Z,10.15
2022-10-07T21:12:01.697Z,9.03
2022-10-07T21:14:35.489Z,8.05
2022-10-07T21:17:09.710Z,7.80
2022-10-07T21:19:42.702Z,8.80
2022-10-07T21:22:15.549Z,7.67
2022-10-07T21:24:48.551Z,9.15
2022-10-07T21:27:21.527Z,8.20
2022-10-07T21:29:54.378Z,8.68
2022-10-07T21:32:28.477Z,8.63
2022-10-07T21:35:03.515Z,8.40
2022-10-07T21:37:36.532Z,7.60
2022-10-07T21:40:10.564Z,7.92
2022-10-07T21:45:16.114Z,8.03
2022-10-07T21:47:49.885Z,8.53
2022-10-07T21:50:22.537Z,8.83
2022-10-07T21:52:55.239Z,8.05
2022-10-07T21:55:28.083Z,7.05
2022-10-07T21:58:01.989Z,8.28
2022-10-07T22:00:36.530Z,7.50
2022-10-07T22:03:12.747Z,7.97
2022-10-07T22:05:45.601Z,7.95
2022-10-07T22:08:38.175Z,8.13
2022-10-07T22:11:19.362Z,8.05
2022-10-07T22:13:55.433Z,8.18
2022-10-07T22:16:29.307Z,7.80
2022-10-07T22:21:38.037Z,6.75
2022-10-07T22:24:11.240Z,7.40
2022-10-07T22:26:47.544Z,7.77
2022-10-07T22:29:21.956Z,7.17
2022-10-07T22:31:55.432Z,8.25
2022-10-07T22:34:45.815Z,8.00
2022-10-07T22:37:18.899Z,7.12
2022-10-07T22:39:51.772Z,7.70
2022-10-07T22:44:57.726Z,7.03
2022-10-07T22:47:30.516Z,6.75
2022-10-07T22:50:08.400Z,7.70
2022-10-07T22:52:41.924Z,7.55
2022-10-07T22:55:17.082Z,8.00
2022-10-07T22:57:51.413Z,8.13
2022-10-07T23:02:56.535Z,8.00
2022-10-07T23:05:29.343Z,7.78
2022-10-07T23:08:02.033Z,7.25
2022-10-07T23:10:34.928Z,7.42
2022-10-07T23:13:07.876Z,7.28
2022-10-07T23:15:41.212Z,7.53
2022-10-07T23:18:14.523Z,7.25
2022-10-07T23:20:47.331Z,8.35
2022-10-07T23:23:20.134Z,6.92
2022-10-07T23:25:53.438Z,8.13
2022-10-07T23:28:26.568Z,6.78
2022-10-07T23:31:01.158Z,7.47
2022-10-07T23:33:35.963Z,7.70
2022-10-07T23:36:11.674Z,7.35
2022-10-07T23:38:45.583Z,7.55
2022-10-07T23:41:22.800Z,7.30
2022-10-07T23:43:57.843Z,6.90
2022-10-07T23:46:34.250Z,6.75
2022-10-07T23:49:07.427Z,7.15
2022-10-07T23:51:40.176Z,8.28
2022-10-07T23:54:13.135Z,7.33
2022-10-07T23:56:47.010Z,6.55
2022-10-07T23:59:19.794Z,6.70
